Time;durP1;ratioP1;P1;durP2;ratioP2;P2;SDS_P1;SDS_P2;PMS_P1;PMS_P2;Temp;Humidity;BMP_temperature;BMP_pressure;BME280_temperature;BME280_humidity;BME280_pressure;Samples;Min_cycle;Max_cycle;Signal;HPM_P1;HPM_P2
2022/06/20 05:05:04;;;;;;;6.85;4.18;;;;;;;;;;6390191;27;20738;-63
2022/06/20 05:08:09;;;;;;;5.18;4.20;;;;;;;;;;6367127;27;20157;-63
2022/06/20 05:11:19;;;;;;;6.63;4.28;;;;;;;;;;6375148;27;20039;-63
2022/06/20 05:14:24;;;;;;;7.45;4.18;;;;;;;;;;6372355;27;20039;-62
2022/06/20 05:17:29;;;;;;;7.40;4.10;;;;;;;;;;6214702;27;20052;-60
2022/06/20 05:20:35;;;;;;;5.60;3.88;;;;;;;;;;6304750;28;20131;-63
2022/06/20 05:23:45;;;;;;;8.98;4.35;;;;;;;;;;6304047;28;20056;-62
2022/06/20 05:26:49;;;;;;;5.18;4.00;;;;;;;;;;6297138;28;20076;-62
2022/06/20 05:29:52;;;;;;;5.05;3.80;;;;;;;;;;6303623;28;20121;-63
2022/06/20 05:32:59;;;;;;;4.65;3.75;;;;;;;;;;6309766;28;20131;-62
2022/06/20 05:36:07;;;;;;;7.20;4.30;;;;;;;;;;6313111;28;20040;-63
2022/06/20 05:39:17;;;;;;;5.22;4.30;;;;;;;;;;6310270;28;20055;-62
2022/06/20 05:42:18;;;;;;;5.80;4.07;;;;;;;;;;6310023;28;20118;-62
2022/06/20 05:45:23;;;;;;;9.68;3.83;;;;;;;;;;6305441;28;20070;-62
2022/06/20 05:48:30;;;;;;;6.53;4.40;;;;;;;;;;6303899;28;20041;-63
2022/06/20 05:51:35;;;;;;;5.65;4.00;;;;;;;;;;6310584;28;20056;-63
2022/06/20 05:54:49;;;;;;;7.38;4.00;;;;;;;;;;6307116;28;20052;-62
2022/06/20 05:57:50;;;;;;;5.63;3.88;;;;;;;;;;6301183;28;20044;-62
2022/06/20 06:00:53;;;;;;;6.90;4.32;;;;;;;;;;6313062;28;20044;-63
2022/06/20 06:04:11;;;;;;;9.32;4.18;;;;;;;;;;6305720;28;20048;-63
2022/06/20 06:07:19;;;;;;;4.95;4.15;;;;;;;;;;6305063;28;20520;-63
2022/06/20 06:10:42;;;;;;;8.95;3.97;;;;;;;;;;6313874;28;20072;-63
2022/06/20 06:13:48;;;;;;;6.20;4.35;;;;;;;;;;6319493;28;20426;-63
2022/06/20 06:17:02;;;;;;;8.48;4.20;;;;;;;;;;6314121;28;20074;-62
2022/06/20 06:20:10;;;;;;;5.68;4.40;;;;;;;;;;6309664;28;20040;-63
2022/06/20 06:23:12;;;;;;;6.18;4.20;;;;;;;;;;6305522;28;20045;-64
2022/06/20 06:26:16;;;;;;;6.30;4.18;;;;;;;;;;6304481;28;21599;-63
2022/06/20 06:29:22;;;;;;;8.52;4.30;;;;;;;;;;6307156;28;20117;-65
2022/06/20 06:32:30;;;;;;;6.00;4.35;;;;;;;;;;6283430;28;20048;-63
2022/06/20 06:35:39;;;;;;;6.63;4.38;;;;;;;;;;6289624;28;20044;-63
2022/06/20 06:38:45;;;;;;;6.75;4.20;;;;;;;;;;6291438;28;20040;-64
2022/06/20 06:41:49;;;;;;;6.80;4.55;;;;;;;;;;6289061;28;20048;-61
2022/06/20 06:44:51;;;;;;;6.82;4.43;;;;;;;;;;6293985;28;20376;-63
2022/06/20 06:48:09;;;;;;;7.55;4.40;;;;;;;;;;6292692;28;20106;-64
2022/06/20 06:51:18;;;;;;;6.85;4.43;;;;;;;;;;6286533;28;20480;-64
2022/06/20 06:54:24;;;;;;;7.60;4.47;;;;;;;;;;6289093;28;20076;-64
2022/06/20 06:57:46;;;;;;;6.75;4.25;;;;;;;;;;6292136;28;20124;-63
2022/06/20 07:00:54;;;;;;;6.82;4.20;;;;;;;;;;6286588;28;20074;-64
2022/06/20 07:03:59;;;;;;;5.22;3.90;;;;;;;;;;6289081;28;20044;-64
2022/06/20 07:07:06;;;;;;;6.03;3.90;;;;;;;;;;6288093;28;20048;-63
2022/06/20 07:10:17;;;;;;;8.48;4.60;;;;;;;;;;6287349;28;20130;-63
2022/06/20 07:13:41;;;;;;;7.05;4.50;;;;;;;;;;6287641;28;20583;-63
2022/06/20 07:16:58;;;;;;;7.88;4.40;;;;;;;;;;6289457;28;20495;-63
2022/06/20 07:20:00;;;;;;;9.23;4.38;;;;;;;;;;6292108;28;20415;-63
2022/06/20 07:23:04;;;;;;;6.10;4.40;;;;;;;;;;6287818;28;20041;-63
2022/06/20 07:26:05;;;;;;;6.38;4.38;;;;;;;;;;6287815;28;20039;-64
2022/06/20 07:29:19;;;;;;;8.67;4.43;;;;;;;;;;6290132;28;20171;-65
2022/06/20 07:32:33;;;;;;;7.82;4.63;;;;;;;;;;6283864;28;20072;-63
2022/06/20 07:35:43;;;;;;;8.35;4.63;;;;;;;;;;6290209;28;20044;-64
2022/06/20 07:39:04;;;;;;;9.48;4.50;;;;;;;;;;6302404;28;20047;-64
2022/06/20 07:42:14;;;;;;;8.00;4.38;;;;;;;;;;6288675;28;20117;-63
2022/06/20 07:45:19;;;;;;;8.07;4.93;;;;;;;;;;6285652;28;20136;-65
2022/06/20 07:48:31;;;;;;;8.48;4.65;;;;;;;;;;6275664;28;20577;-66
2022/06/20 07:51:40;;;;;;;11.60;5.43;;;;;;;;;;6290387;28;20387;-64
2022/06/20 07:54:48;;;;;;;7.72;4.80;;;;;;;;;;6290956;28;20052;-64
2022/06/20 07:57:58;;;;;;;10.95;4.93;;;;;;;;;;6298316;28;20071;-64
2022/06/20 08:01:01;;;;;;;9.63;4.95;;;;;;;;;;6291484;28;20040;-63
2022/06/20 08:04:08;;;;;;;8.90;4.80;;;;;;;;;;6288949;28;20403;-64
2022/06/20 08:07:15;;;;;;;6.53;4.68;;;;;;;;;;6287867;28;20055;-64
2022/06/20 08:10:25;;;;;;;6.45;4.32;;;;;;;;;;6293025;28;20147;-63
2022/06/20 08:13:42;;;;;;;6.50;5.03;;;;;;;;;;6290390;28;20049;-63
2022/06/20 08:16:44;;;;;;;8.07;4.65;;;;;;;;;;6283602;28;20052;-63
2022/06/20 08:19:45;;;;;;;7.72;4.45;;;;;;;;;;6282602;28;20573;-62
2022/06/20 08:22:52;;;;;;;8.63;5.13;;;;;;;;;;6284531;28;20036;-62
2022/06/20 08:25:58;;;;;;;7.13;4.53;;;;;;;;;;6285508;28;20075;-62
2022/06/20 08:29:13;;;;;;;7.35;4.80;;;;;;;;;;6285925;28;20121;-62
2022/06/20 08:32:25;;;;;;;9.43;4.75;;;;;;;;;;6285036;28;20044;-62
2022/06/20 08:35:36;;;;;;;7.10;4.70;;;;;;;;;;6283833;28;20076;-62
2022/06/20 08:38:56;;;;;;;7.15;4.90;;;;;;;;;;6285539;28;20089;-62
2022/06/20 08:42:28;;;;;;;6.80;4.78;;;;;;;;;;6288725;28;20070;-62
2022/06/20 08:45:37;;;;;;;;;;;;;;;;;;6287087;28;20052;-62
2022/06/20 08:48:56;;;;;;;10.63;4.85;;;;;;;;;;6295428;28;20298;-62
2022/06/20 08:52:32;;;;;;;8.68;5.30;;;;;;;;;;6304141;28;20110;-62
2022/06/20 08:55:42;;;;;;;8.15;5.15;;;;;;;;;;6286753;28;20044;-62
2022/06/20 08:58:52;;;;;;;7.10;5.00;;;;;;;;;;6284542;28;20040;-62
2022/06/20 09:02:18;;;;;;;8.50;6.10;;;;;;;;;;6297872;28;20040;-62
2022/06/20 09:05:40;;;;;;;7.35;5.15;;;;;;;;;;6298699;28;20249;-63
2022/06/20 09:08:58;;;;;;;9.57;4.72;;;;;;;;;;6282189;28;20051;-61
2022/06/20 09:12:14;;;;;;;7.80;4.55;;;;;;;;;;6281712;28;20082;-63
2022/06/20 09:15:33;;;;;;;8.63;4.97;;;;;;;;;;6278962;28;20094;-62
2022/06/20 09:18:55;;;;;;;11.20;5.13;;;;;;;;;;6284419;28;20093;-62
2022/06/20 09:21:55;;;;;;;7.30;5.13;;;;;;;;;;6281239;28;20480;-63
2022/06/20 09:25:20;;;;;;;9.60;6.60;;;;;;;;;;6284010;28;20131;-63
2022/06/20 09:28:21;;;;;;;7.63;4.82;;;;;;;;;;6284586;28;20080;-62
2022/06/20 09:31:45;;;;;;;9.20;7.00;;;;;;;;;;6282106;28;20831;-63
2022/06/20 09:35:14;;;;;;;9.38;5.43;;;;;;;;;;6277784;28;20522;-62
2022/06/20 09:38:34;;;;;;;5.55;4.65;;;;;;;;;;6286372;28;20138;-63
2022/06/20 09:41:43;;;;;;;9.15;5.13;;;;;;;;;;6281195;28;20449;-61
2022/06/20 09:44:56;;;;;;;10.23;5.43;;;;;;;;;;6280636;28;20045;-62
2022/06/20 09:48:05;;;;;;;8.18;4.85;;;;;;;;;;6289055;28;20050;-61
2022/06/20 09:51:16;;;;;;;8.40;5.20;;;;;;;;;;6289274;28;20487;-62
2022/06/20 09:54:32;;;;;;;5.65;5.00;;;;;;;;;;6289589;28;20146;-62
2022/06/20 09:57:57;;;;;;;7.05;4.88;;;;;;;;;;6292460;28;20048;-63
2022/06/20 10:01:22;;;;;;;9.07;5.80;;;;;;;;;;6284267;28;20094;-62
2022/06/20 10:04:44;;;;;;;9.57;5.50;;;;;;;;;;6283723;28;20075;-63
2022/06/20 10:08:08;;;;;;;8.48;6.28;;;;;;;;;;6291838;28;20342;-62
2022/06/20 10:11:18;;;;;;;8.63;5.85;;;;;;;;;;6285280;28;20040;-62
2022/06/20 10:14:27;;;;;;;8.35;5.53;;;;;;;;;;6295274;28;20398;-62
2022/06/20 10:17:40;;;;;;;9.30;5.13;;;;;;;;;;6311813;28;20564;-63
2022/06/20 10:21:05;;;;;;;11.65;5.55;;;;;;;;;;6303768;28;20051;-60
2022/06/20 10:24:34;;;;;;;6.53;5.03;;;;;;;;;;6304628;28;20052;-62
2022/06/20 10:27:43;;;;;;;7.47;5.40;;;;;;;;;;6308618;28;20113;-63
2022/06/20 10:31:05;;;;;;;11.20;6.00;;;;;;;;;;6303100;28;20040;-62
2022/06/20 10:34:18;;;;;;;10.88;5.93;;;;;;;;;;6297373;28;20483;-63
2022/06/20 10:37:41;;;;;;;10.68;5.93;;;;;;;;;;6282144;28;20056;-63
2022/06/20 10:41:08;;;;;;;7.78;5.93;;;;;;;;;;6284371;28;20130;-63
2022/06/20 10:44:18;;;;;;;9.93;5.57;;;;;;;;;;6289222;28;20043;-64
2022/06/20 10:47:23;;;;;;;8.55;5.53;;;;;;;;;;6297386;28;20071;-62
2022/06/20 10:50:31;;;;;;;11.38;5.45;;;;;;;;;;6288711;28;20136;-63
2022/06/20 10:53:37;;;;;;;8.93;5.35;;;;;;;;;;6289687;28;20071;-62
2022/06/20 10:56:46;;;;;;;9.20;5.40;;;;;;;;;;6288695;28;20079;-62
2022/06/20 11:00:06;;;;;;;9.65;5.60;;;;;;;;;;6288323;28;20139;-63
2022/06/20 11:03:25;;;;;;;11.02;5.75;;;;;;;;;;6295031;28;20041;-62
2022/06/20 11:06:56;;;;;;;9.75;5.72;;;;;;;;;;6306699;28;20090;-62
2022/06/20 11:10:22;;;;;;;10.52;6.32;;;;;;;;;;6284949;28;20076;-61
2022/06/20 11:13:36;;;;;;;10.32;5.43;;;;;;;;;;6288420;28;20414;-63
2022/06/20 11:17:02;;;;;;;8.45;5.57;;;;;;;;;;6282260;28;20055;-61
2022/06/20 11:20:29;;;;;;;9.77;5.60;;;;;;;;;;6279394;28;20052;-62
2022/06/20 11:23:55;;;;;;;9.75;5.78;;;;;;;;;;6283728;28;20114;-62
2022/06/20 11:27:08;;;;;;;14.00;5.80;;;;;;;;;;6277841;28;20079;-63
2022/06/20 11:30:24;;;;;;;13.07;5.47;;;;;;;;;;6258239;28;20805;-61
2022/06/20 11:37:28;;;;;;;9.60;5.00;;;;;;;;;;6262615;28;20838;-61
2022/06/20 11:40:40;;;;;;;11.10;5.20;;;;;;;;;;6265391;28;20076;-61
2022/06/20 11:44:10;;;;;;;13.25;5.88;;;;;;;;;;6266613;28;20163;-61
2022/06/20 11:47:31;;;;;;;13.45;5.20;;;;;;;;;;6263745;28;20055;-62
2022/06/20 11:50:40;;;;;;;19.90;3.93;;;;;;;;;;6260937;28;20041;-62
2022/06/20 11:54:14;;;;;;;35.85;4.55;;;;;;;;;;6268745;28;20049;-62
2022/06/20 11:57:28;;;;;;;23.92;4.35;;;;;;;;;;6269254;28;20059;-61
2022/06/20 12:01:15;;;;;;;22.08;4.13;;;;;;;;;;6266152;28;20129;-61
2022/06/20 12:04:29;;;;;;;18.25;4.55;;;;;;;;;;6258708;28;20056;-61
2022/06/20 12:07:41;;;;;;;14.57;4.80;;;;;;;;;;6258975;28;20079;-61
2022/06/20 12:10:43;;;;;;;12.63;4.90;;;;;;;;;;6263402;28;20059;-61
2022/06/20 12:14:11;;;;;;;15.65;5.13;;;;;;;;;;6269019;28;20144;-61
2022/06/20 12:17:30;;;;;;;9.77;4.72;;;;;;;;;;6260530;28;20052;-61
2022/06/20 12:24:08;;;;;;;11.65;5.22;;;;;;;;;;6268017;28;20052;-61
2022/06/20 12:27:16;;;;;;;9.82;4.65;;;;;;;;;;6262852;28;21368;-62
2022/06/20 12:30:17;;;;;;;11.63;4.63;;;;;;;;;;6263178;28;20575;-60
2022/06/20 12:33:17;;;;;;;11.05;4.97;;;;;;;;;;6261792;28;20147;-61
2022/06/20 12:36:27;;;;;;;10.20;5.60;;;;;;;;;;6264368;28;20056;-61
2022/06/20 12:39:34;;;;;;;9.00;5.35;;;;;;;;;;6259260;28;20071;-61
2022/06/20 12:42:59;;;;;;;12.77;6.15;;;;;;;;;;6267098;28;20064;-60
2022/06/20 12:46:09;;;;;;;11.40;5.63;;;;;;;;;;6269386;28;20633;-61
2022/06/20 12:49:33;;;;;;;12.05;5.65;;;;;;;;;;6267114;28;20052;-61
2022/06/20 12:52:42;;;;;;;11.25;5.78;;;;;;;;;;6269539;28;20107;-61
2022/06/20 12:55:59;;;;;;;10.45;5.63;;;;;;;;;;6267150;28;20057;-62
2022/06/20 12:59:00;;;;;;;8.77;5.13;;;;;;;;;;6268186;28;20498;-60
2022/06/20 13:02:23;;;;;;;12.63;5.47;;;;;;;;;;6266511;28;20074;-61
2022/06/20 13:05:29;;;;;;;10.82;5.30;;;;;;;;;;6264429;28;20076;-61
2022/06/20 13:08:56;;;;;;;13.55;5.50;;;;;;;;;;6264995;28;20041;-62
2022/06/20 13:12:21;;;;;;;9.15;4.90;;;;;;;;;;6268935;28;20521;-62
2022/06/20 13:16:04;;;;;;;11.63;5.38;;;;;;;;;;6267737;28;20442;-61
2022/06/20 13:19:13;;;;;;;11.10;5.50;;;;;;;;;;6216803;28;20160;-62
2022/06/20 13:22:24;;;;;;;13.02;5.60;;;;;;;;;;6266702;28;20068;-61
2022/06/20 13:25:55;;;;;;;9.97;5.20;;;;;;;;;;6211550;28;20039;-62
2022/06/20 13:29:24;;;;;;;13.00;5.53;;;;;;;;;;6267218;28;20305;-62
2022/06/20 13:32:32;;;;;;;11.30;5.40;;;;;;;;;;6196166;28;20056;-61
2022/06/20 13:36:07;;;;;;;10.07;5.35;;;;;;;;;;6265990;28;20075;-60
2022/06/20 13:39:23;;;;;;;8.73;5.60;;;;;;;;;;6259990;28;20147;-63
2022/06/20 13:42:43;;;;;;;9.93;5.25;;;;;;;;;;6266267;28;20045;-63
2022/06/20 13:45:58;;;;;;;13.00;5.80;;;;;;;;;;6269534;28;20948;-60
2022/06/20 13:49:24;;;;;;;14.02;5.07;;;;;;;;;;6268550;28;20396;-62
2022/06/20 13:52:37;;;;;;;10.60;5.38;;;;;;;;;;6271223;28;20143;-63
2022/06/20 13:56:10;;;;;;;16.23;5.53;;;;;;;;;;6272098;28;20091;-62
2022/06/20 13:59:37;;;;;;;11.48;5.30;;;;;;;;;;6265863;28;20071;-62
2022/06/20 14:02:41;;;;;;;8.73;4.65;;;;;;;;;;6262760;28;20045;-62
2022/06/20 14:05:43;;;;;;;10.13;4.32;;;;;;;;;;6268102;28;20060;-62
2022/06/20 14:08:47;;;;;;;;;;;;;;;;;;6266625;28;20043;-62
2022/06/20 14:12:00;;;;;;;12.80;5.60;;;;;;;;;;6271821;28;19923;-61
2022/06/20 14:15:16;;;;;;;12.75;6.38;;;;;;;;;;6266699;28;20078;-62
2022/06/20 14:18:28;;;;;;;13.60;6.85;;;;;;;;;;6264140;28;20142;-63
2022/06/20 14:21:34;;;;;;;15.77;6.93;;;;;;;;;;6268408;28;20481;-62
2022/06/20 14:24:38;;;;;;;14.02;6.53;;;;;;;;;;6267828;28;20130;-61
2022/06/20 14:27:39;;;;;;;12.13;6.07;;;;;;;;;;6265539;28;20075;-62
2022/06/20 14:30:39;;;;;;;15.70;7.07;;;;;;;;;;6265005;28;20052;-62
2022/06/20 14:33:52;;;;;;;11.70;7.10;;;;;;;;;;6264697;28;20106;-62
2022/06/20 14:37:00;;;;;;;16.75;7.32;;;;;;;;;;6265136;28;20134;-63
2022/06/20 14:40:02;;;;;;;13.45;7.28;;;;;;;;;;6266562;28;20041;-64
2022/06/20 14:43:14;;;;;;;13.93;7.53;;;;;;;;;;6268114;28;20510;-62
2022/06/20 14:46:23;;;;;;;12.98;6.60;;;;;;;;;;6273675;28;20055;-62
2022/06/20 14:49:46;;;;;;;11.80;6.82;;;;;;;;;;6268525;28;20071;-62
2022/06/20 14:52:50;;;;;;;15.48;7.30;;;;;;;;;;6265395;28;20416;-62
2022/06/20 14:55:59;;;;;;;12.38;7.38;;;;;;;;;;6263433;28;20507;-62
2022/06/20 14:59:12;;;;;;;12.63;7.15;;;;;;;;;;6266739;28;21109;-62
2022/06/20 15:02:28;;;;;;;13.57;8.15;;;;;;;;;;6267438;28;20607;-61
2022/06/20 15:05:46;;;;;;;15.50;7.82;;;;;;;;;;6272385;28;20403;-61
2022/06/20 15:09:16;;;;;;;21.02;8.68;;;;;;;;;;6271098;28;20580;-62
2022/06/20 15:12:29;;;;;;;15.23;7.80;;;;;;;;;;6267680;28;20080;-62
2022/06/20 15:15:44;;;;;;;16.00;8.82;;;;;;;;;;6266143;28;20083;-62
2022/06/20 15:18:52;;;;;;;18.60;8.80;;;;;;;;;;6261935;28;20059;-62
2022/06/20 15:22:24;;;;;;;15.43;7.90;;;;;;;;;;6272385;28;20044;-62
2022/06/20 15:25:45;;;;;;;17.17;8.15;;;;;;;;;;6275927;28;20071;-64
2022/06/20 15:28:59;;;;;;;15.32;7.65;;;;;;;;;;6269385;28;20424;-63
2022/06/20 15:32:04;;;;;;;12.20;7.07;;;;;;;;;;6273014;28;20054;-62
2022/06/20 15:35:19;;;;;;;13.98;7.07;;;;;;;;;;6273145;28;20103;-62
2022/06/20 15:38:27;;;;;;;14.82;7.20;;;;;;;;;;6269385;28;20041;-63
2022/06/20 15:41:45;;;;;;;15.15;7.32;;;;;;;;;;6270714;28;20144;-62
2022/06/20 15:45:00;;;;;;;11.10;6.53;;;;;;;;;;6269863;28;20122;-63
2022/06/20 15:48:30;;;;;;;13.82;7.22;;;;;;;;;;6267997;28;20106;-63
2022/06/20 15:51:37;;;;;;;15.27;8.70;;;;;;;;;;6267350;28;20048;-62
2022/06/20 15:54:57;;;;;;;17.40;7.28;;;;;;;;;;6273816;28;20085;-64
2022/06/20 15:58:04;;;;;;;15.13;7.15;;;;;;;;;;6272050;28;20041;-64
2022/06/20 16:01:26;;;;;;;12.57;6.72;;;;;;;;;;6271344;28;20048;-63
2022/06/20 16:04:47;;;;;;;9.32;5.53;;;;;;;;;;6277163;28;20090;-63
2022/06/20 16:08:19;;;;;;;11.07;5.30;;;;;;;;;;6271219;28;20079;-63
2022/06/20 16:11:39;;;;;;;10.63;5.25;;;;;;;;;;6274365;28;20048;-63
2022/06/20 16:15:03;;;;;;;12.65;5.47;;;;;;;;;;6269631;28;20622;-63
2022/06/20 16:18:11;;;;;;;12.15;5.47;;;;;;;;;;6271422;28;20049;-63
2022/06/20 16:21:25;;;;;;;10.23;4.78;;;;;;;;;;6272066;28;20167;-63
2022/06/20 16:24:58;;;;;;;14.98;4.95;;;;;;;;;;6273779;28;20052;-63
2022/06/20 16:28:16;;;;;;;12.18;5.30;;;;;;;;;;6270658;28;20084;-63
2022/06/20 16:31:29;;;;;;;9.75;4.90;;;;;;;;;;6270924;28;20083;-64
2022/06/20 16:34:33;;;;;;;9.80;5.20;;;;;;;;;;6266151;28;20052;-64
2022/06/20 16:37:33;;;;;;;12.65;5.40;;;;;;;;;;6263879;28;20651;-65
2022/06/20 16:41:02;;;;;;;10.47;5.17;;;;;;;;;;6266994;28;20064;-62
2022/06/20 16:44:28;;;;;;;9.80;4.72;;;;;;;;;;6260687;28;20098;-62
2022/06/20 16:47:39;;;;;;;11.35;5.00;;;;;;;;;;6255800;28;20049;-63
2022/06/20 16:51:01;;;;;;;11.60;4.95;;;;;;;;;;6268200;28;20056;-63
2022/06/20 16:54:20;;;;;;;11.73;5.20;;;;;;;;;;6265768;28;20147;-63
2022/06/20 16:57:36;;;;;;;11.40;5.57;;;;;;;;;;6264803;28;20041;-63
2022/06/20 17:00:46;;;;;;;11.35;5.20;;;;;;;;;;6264481;28;20092;-64
2022/06/20 17:03:56;;;;;;;17.33;8.55;;;;;;;;;;6268171;28;20058;-67
2022/06/20 17:07:01;;;;;;;13.27;6.22;;;;;;;;;;6263472;28;21025;-64
2022/06/20 17:10:20;;;;;;;11.57;5.28;;;;;;;;;;6263701;28;20068;-64
2022/06/20 17:13:26;;;;;;;12.32;5.30;;;;;;;;;;6263757;28;20474;-65
2022/06/20 17:16:46;;;;;;;7.00;5.03;;;;;;;;;;6262984;28;20060;-64
2022/06/20 17:19:57;;;;;;;12.32;5.50;;;;;;;;;;6261537;28;20072;-64
2022/06/20 17:23:01;;;;;;;9.43;5.85;;;;;;;;;;6263625;28;20124;-64
2022/06/20 17:26:36;;;;;;;13.68;5.88;;;;;;;;;;6268271;28;20076;-63
2022/06/20 17:29:51;;;;;;;12.00;5.47;;;;;;;;;;6263408;28;20088;-63
2022/06/20 17:33:04;;;;;;;8.52;5.70;;;;;;;;;;6264085;28;20068;-65
2022/06/20 17:36:44;;;;;;;9.95;5.28;;;;;;;;;;6266336;28;20052;-66
2022/06/20 17:40:01;;;;;;;15.98;7.55;;;;;;;;;;6260078;28;21627;-64
2022/06/20 17:43:31;;;;;;;13.70;6.07;;;;;;;;;;6266963;28;20527;-63
2022/06/20 17:46:39;;;;;;;10.63;5.38;;;;;;;;;;6256636;28;20161;-63
2022/06/20 17:49:50;;;;;;;8.88;5.53;;;;;;;;;;6260220;28;20155;-63
2022/06/20 17:53:15;;;;;;;12.57;5.93;;;;;;;;;;6263100;28;20080;-63
2022/06/20 17:56:42;;;;;;;9.70;5.82;;;;;;;;;;6266707;28;20049;-62
2022/06/20 17:59:51;;;;;;;11.18;5.80;;;;;;;;;;6263519;28;20037;-63
2022/06/20 18:03:08;;;;;;;11.43;6.55;;;;;;;;;;6260901;28;20737;-62
2022/06/20 18:06:17;;;;;;;12.40;7.03;;;;;;;;;;6264857;28;20103;-63
2022/06/20 18:09:54;;;;;;;13.70;6.85;;;;;;;;;;6262496;28;20400;-63
2022/06/20 18:13:02;;;;;;;11.73;6.82;;;;;;;;;;6258068;28;20582;-63
2022/06/20 18:16:27;;;;;;;16.98;7.20;;;;;;;;;;6268861;28;20557;-63
2022/06/20 18:19:36;;;;;;;11.82;7.75;;;;;;;;;;6269284;28;20534;-63
2022/06/20 18:23:01;;;;;;;15.85;7.82;;;;;;;;;;6269148;28;20060;-63
2022/06/20 18:26:11;;;;;;;15.85;9.38;;;;;;;;;;6267096;28;20045;-65
2022/06/20 18:29:14;;;;;;;13.73;8.82;;;;;;;;;;6266121;28;20127;-61
2022/06/20 18:32:18;;;;;;;14.32;8.85;;;;;;;;;;6268763;28;20068;-62
2022/06/20 18:35:21;;;;;;;15.93;8.52;;;;;;;;;;6265997;28;20071;-62
2022/06/20 18:38:28;;;;;;;15.90;9.60;;;;;;;;;;6265910;28;20495;-62
2022/06/20 18:41:29;;;;;;;13.55;9.35;;;;;;;;;;6264857;28;20107;-62
2022/06/20 18:44:42;;;;;;;19.43;9.80;;;;;;;;;;6266060;28;21464;-62
2022/06/20 18:47:51;;;;;;;16.05;9.18;;;;;;;;;;6267221;28;21390;-63
2022/06/20 18:51:09;;;;;;;12.10;8.43;;;;;;;;;;6267987;28;20068;-64
2022/06/20 18:54:30;;;;;;;15.13;8.27;;;;;;;;;;6266915;28;20184;-66
2022/06/20 18:57:39;;;;;;;14.02;8.52;;;;;;;;;;6264332;28;20041;-63
2022/06/20 19:01:14;;;;;;;15.90;9.20;;;;;;;;;;6268849;28;20033;-61
2022/06/20 19:04:26;;;;;;;16.65;8.63;;;;;;;;;;6267847;28;20102;-61
2022/06/20 19:07:26;;;;;;;;;;;;;;;;;;6266253;28;20053;-60
2022/06/20 19:10:54;;;;;;;12.52;7.65;;;;;;;;;;6273211;28;20376;-62
2022/06/20 19:14:01;;;;;;;12.90;7.78;;;;;;;;;;6268939;28;20045;-62
2022/06/20 19:17:16;;;;;;;15.65;7.85;;;;;;;;;;6264406;28;20133;-63
2022/06/20 19:20:46;;;;;;;12.02;7.22;;;;;;;;;;6273165;28;20147;-62
2022/06/20 19:23:51;;;;;;;10.45;6.93;;;;;;;;;;6272264;28;20044;-64
2022/06/20 19:26:55;;;;;;;11.65;6.32;;;;;;;;;;6272269;28;20048;-62
2022/06/20 19:30:04;;;;;;;7.32;5.18;;;;;;;;;;6270773;28;20508;-62
2022/06/20 19:33:12;;;;;;;8.45;4.95;;;;;;;;;;6268405;28;20049;-63
2022/06/20 19:36:21;;;;;;;7.43;5.00;;;;;;;;;;6275682;28;20764;-62
2022/06/20 19:39:47;;;;;;;7.95;5.22;;;;;;;;;;6263847;28;20048;-63
2022/06/20 19:42:55;;;;;;;8.15;4.78;;;;;;;;;;6269697;28;20037;-64
2022/06/20 19:45:56;;;;;;;7.60;4.68;;;;;;;;;;6270231;28;20109;-64
2022/06/20 19:48:57;;;;;;;7.50;4.80;;;;;;;;;;6263642;28;20052;-63
2022/06/20 19:52:19;;;;;;;7.50;4.70;;;;;;;;;;6270997;28;20665;-63
2022/06/20 19:55:52;;;;;;;7.20;4.43;;;;;;;;;;6266132;28;20147;-63
2022/06/20 19:58:55;;;;;;;6.78;4.50;;;;;;;;;;6262386;28;20556;-63
2022/06/20 20:02:08;;;;;;;9.27;4.68;;;;;;;;;;6263115;28;20041;-63
2022/06/20 20:05:13;;;;;;;6.95;4.82;;;;;;;;;;6268944;28;20063;-63
2022/06/20 20:08:22;;;;;;;7.38;4.30;;;;;;;;;;6265255;28;20134;-63
2022/06/20 20:11:34;;;;;;;7.53;5.20;;;;;;;;;;6270562;28;20117;-64
2022/06/20 20:14:35;;;;;;;10.23;4.70;;;;;;;;;;6265354;28;20285;-63
2022/06/20 20:18:14;;;;;;;7.30;4.90;;;;;;;;;;6265865;28;20045;-63
2022/06/20 20:21:26;;;;;;;8.70;5.05;;;;;;;;;;6266670;28;20072;-63
2022/06/20 20:24:36;;;;;;;8.43;4.85;;;;;;;;;;6268615;28;20195;-63
2022/06/20 20:27:45;;;;;;;9.88;6.13;;;;;;;;;;6263862;28;20063;-63
2022/06/20 20:30:57;;;;;;;9.90;5.65;;;;;;;;;;6266921;28;20040;-63
2022/06/20 20:34:13;;;;;;;9.63;6.22;;;;;;;;;;6265971;28;20130;-63
2022/06/20 20:37:32;;;;;;;8.52;5.95;;;;;;;;;;6268282;28;20519;-63
2022/06/20 20:40:45;;;;;;;9.68;7.07;;;;;;;;;;6272928;28;20047;-63
2022/06/20 20:43:45;;;;;;;9.30;6.35;;;;;;;;;;6273633;28;20912;-63
2022/06/20 20:47:28;;;;;;;8.53;5.17;;;;;;;;;;6268447;28;20064;-63
2022/06/20 20:50:37;;;;;;;8.68;5.15;;;;;;;;;;6269987;28;20118;-63
2022/06/20 20:53:42;;;;;;;9.20;4.88;;;;;;;;;;6269092;28;20905;-63
2022/06/20 20:56:47;;;;;;;8.77;5.40;;;;;;;;;;6267149;28;20049;-63
2022/06/20 21:00:00;;;;;;;12.30;5.97;;;;;;;;;;6272069;28;20101;-64
2022/06/20 21:03:08;;;;;;;7.18;5.20;;;;;;;;;;6293374;28;20048;-63
2022/06/20 21:06:21;;;;;;;8.10;5.53;;;;;;;;;;6294206;28;20494;-63
2022/06/20 21:09:29;;;;;;;7.85;5.22;;;;;;;;;;6308672;28;20071;-63
2022/06/20 21:12:52;;;;;;;7.30;5.18;;;;;;;;;;6291122;28;20089;-64
2022/06/20 21:16:13;;;;;;;7.85;4.90;;;;;;;;;;6292252;28;20048;-63
2022/06/20 21:19:21;;;;;;;7.20;5.00;;;;;;;;;;6308491;28;20059;-63
2022/06/20 21:22:22;;;;;;;7.25;4.72;;;;;;;;;;6304833;28;20048;-63
2022/06/20 21:25:26;;;;;;;5.38;3.92;;;;;;;;;;6308275;28;20039;-63
2022/06/20 21:28:36;;;;;;;5.88;3.38;;;;;;;;;;6305599;28;20044;-63
2022/06/20 21:31:48;;;;;;;6.20;3.20;;;;;;;;;;6304273;28;20040;-63
2022/06/20 21:34:58;;;;;;;;;;;;;;;;;;6299046;28;20052;-62
2022/06/20 21:38:03;;;;;;;4.72;2.40;;;;;;;;;;6299092;28;19925;-64
2022/06/20 21:41:11;;;;;;;3.55;1.70;;;;;;;;;;6297314;28;20048;-63
2022/06/20 21:44:14;;;;;;;4.70;1.60;;;;;;;;;;6300113;28;20119;-63
2022/06/20 21:47:24;;;;;;;6.20;2.38;;;;;;;;;;6300564;28;20044;-62
2022/06/20 21:50:30;;;;;;;3.60;1.67;;;;;;;;;;6293146;28;20125;-62
2022/06/20 21:53:38;;;;;;;4.07;1.52;;;;;;;;;;6296019;28;20487;-63
2022/06/20 21:57:11;;;;;;;3.17;1.70;;;;;;;;;;6296839;28;20056;-63
2022/06/20 22:00:15;;;;;;;5.07;2.45;;;;;;;;;;6293278;28;20407;-63
2022/06/20 22:06:39;;;;;;;5.13;2.03;;;;;;;;;;6291305;28;20056;-63
2022/06/20 22:09:55;;;;;;;3.47;1.92;;;;;;;;;;6286751;28;20101;-63
2022/06/20 22:12:57;;;;;;;3.80;1.92;;;;;;;;;;6285912;28;20067;-63
2022/06/20 22:15:58;;;;;;;4.53;2.15;;;;;;;;;;6288985;28;20450;-63
2022/06/20 22:19:07;;;;;;;3.33;1.67;;;;;;;;;;6289613;28;20131;-62
2022/06/20 22:22:12;;;;;;;4.10;1.70;;;;;;;;;;6285143;28;20040;-63
2022/06/20 22:25:46;;;;;;;3.47;1.70;;;;;;;;;;6288624;28;20048;-62
2022/06/20 22:28:48;;;;;;;6.88;1.98;;;;;;;;;;6287021;28;20407;-62
2022/06/20 22:31:48;;;;;;;3.47;1.50;;;;;;;;;;6284073;28;20048;-63
2022/06/20 22:34:50;;;;;;;3.88;1.80;;;;;;;;;;6293790;28;20050;-62
2022/06/20 22:37:55;;;;;;;;;;;;;;;;;;6290588;28;20040;-62
2022/06/20 22:40:58;;;;;;;4.25;1.70;;;;;;;;;;6286386;28;19993;-62
2022/06/20 22:44:00;;;;;;;4.95;2.03;;;;;;;;;;6279809;28;20057;-62
2022/06/20 22:47:04;;;;;;;5.38;2.15;;;;;;;;;;6286018;28;20087;-63
2022/06/20 22:50:06;;;;;;;5.68;2.97;;;;;;;;;;6287830;28;20515;-63
2022/06/20 22:53:19;;;;;;;6.35;3.97;;;;;;;;;;6284818;28;20056;-62
2022/06/20 22:56:23;;;;;;;8.27;4.07;;;;;;;;;;6286524;28;20047;-62
2022/06/20 22:59:34;;;;;;;7.85;4.32;;;;;;;;;;6286010;28;20147;-62
2022/06/20 23:02:41;;;;;;;6.70;3.60;;;;;;;;;;6289335;28;21507;-62
2022/06/20 23:05:53;;;;;;;7.80;4.03;;;;;;;;;;6284593;28;20528;-62
2022/06/20 23:08:53;;;;;;;6.10;3.77;;;;;;;;;;6279655;28;20052;-62
2022/06/20 23:11:55;;;;;;;6.85;3.75;;;;;;;;;;6285227;28;20044;-62
2022/06/20 23:14:55;;;;;;;7.10;3.17;;;;;;;;;;6284665;28;20032;-62
2022/06/20 23:21:15;;;;;;;5.82;2.00;;;;;;;;;;6281923;28;20041;-61
2022/06/20 23:24:17;;;;;;;3.50;1.90;;;;;;;;;;6285624;28;20051;-62
2022/06/20 23:27:17;;;;;;;3.97;2.15;;;;;;;;;;6286988;28;20047;-62
2022/06/20 23:30:20;;;;;;;4.13;2.10;;;;;;;;;;6282141;28;20064;-62
2022/06/20 23:33:21;;;;;;;3.70;2.05;;;;;;;;;;6280276;28;20052;-62
2022/06/20 23:36:21;;;;;;;4.43;2.38;;;;;;;;;;6289785;28;20055;-62
2022/06/20 23:39:22;;;;;;;4.30;2.25;;;;;;;;;;6285025;28;20143;-62
2022/06/20 23:42:23;;;;;;;4.20;2.20;;;;;;;;;;6281378;28;20503;-62
2022/06/20 23:45:26;;;;;;;5.15;2.25;;;;;;;;;;6284632;28;20051;-60
2022/06/20 23:48:31;;;;;;;4.25;2.30;;;;;;;;;;6283427;28;20037;-62
2022/06/20 23:51:32;;;;;;;3.55;2.30;;;;;;;;;;6282926;28;20455;-62
2022/06/20 23:54:32;;;;;;;4.10;2.50;;;;;;;;;;6285792;28;20049;-62
2022/06/20 23:57:33;;;;;;;4.13;2.50;;;;;;;;;;6289196;28;20058;-61
